createdAt,value
2019-04-11T00:00:53.630Z,46.42
2019-04-11T00:03:23.223Z,46.43
2019-04-11T00:05:52.941Z,46.37
2019-04-11T00:08:22.802Z,46.43
2019-04-11T00:10:53.505Z,46.57
2019-04-11T00:13:25.686Z,46.70
2019-04-11T00:15:55.022Z,46.90
2019-04-11T00:18:24.984Z,47.06
2019-04-11T00:20:54.662Z,47.30
2019-04-11T00:23:24.265Z,47.21
2019-04-11T00:25:53.892Z,47.23
2019-04-11T00:28:23.696Z,47.36
2019-04-11T00:30:54.570Z,47.54
2019-04-11T00:33:24.793Z,47.62
2019-04-11T00:35:55.629Z,47.42
2019-04-11T00:38:25.684Z,47.51
2019-04-11T00:40:55.549Z,47.68
2019-04-11T00:43:31.585Z,47.69
2019-04-11T00:45:56.490Z,47.64
2019-04-11T00:48:26.101Z,47.76
2019-04-11T00:50:55.995Z,47.79
2019-04-11T00:53:25.725Z,47.75
2019-04-11T00:55:55.734Z,47.68
2019-04-11T00:58:25.668Z,47.66
2019-04-11T01:00:55.538Z,47.59
2019-04-11T01:03:26.342Z,47.29
2019-04-11T01:05:56.693Z,47.36
2019-04-11T01:08:27.344Z,47.38
2019-04-11T01:10:57.375Z,47.51
2019-04-11T01:13:39.167Z,47.65
2019-04-11T01:16:00.725Z,47.99
2019-04-11T01:18:30.384Z,48.18
2019-04-11T01:20:59.987Z,48.46
2019-04-11T01:23:29.556Z,48.56
2019-04-11T01:25:59.165Z,48.74
2019-04-11T01:28:28.940Z,48.85
2019-04-11T01:31:15.604Z,48.81
2019-04-11T01:33:46.267Z,48.71
2019-04-11T01:36:15.989Z,48.67
2019-04-11T01:38:48.357Z,48.64
2019-04-11T01:41:18.376Z,48.56
2019-04-11T01:43:56.446Z,48.46
2019-04-11T01:46:20.137Z,48.55
2019-04-11T01:48:57.669Z,48.51
2019-04-11T01:51:27.510Z,48.62
2019-04-11T01:53:57.416Z,48.78
2019-04-11T01:56:27.377Z,48.77
2019-04-11T01:58:57.359Z,48.95
2019-04-11T02:01:31.297Z,49.01
2019-04-11T02:04:03.582Z,49.03
2019-04-11T02:06:34.114Z,49.17
2019-04-11T02:09:06.105Z,49.34
2019-04-11T02:11:35.734Z,49.29
2019-04-11T02:14:12.457Z,49.41
2019-04-11T02:16:38.189Z,49.48
2019-04-11T02:19:07.994Z,49.60
2019-04-11T02:21:38.218Z,49.58
2019-04-11T02:24:09.880Z,49.59
2019-04-11T02:26:43.989Z,49.74
2019-04-11T02:29:13.072Z,49.98
2019-04-11T02:31:44.398Z,50.11
2019-04-11T02:34:15.585Z,50.27
2019-04-11T02:36:45.612Z,50.48
2019-04-11T02:39:19.203Z,50.45
2019-04-11T02:41:47.243Z,50.69
2019-04-11T02:44:32.084Z,50.90
2019-04-11T02:46:59.920Z,51.12
2019-04-11T02:49:21.397Z,51.27
2019-04-11T02:51:51.336Z,51.39
2019-04-11T02:54:25.848Z,51.29
2019-04-11T02:56:55.036Z,51.39
2019-04-11T02:59:27.309Z,51.64
2019-04-11T03:01:58.152Z,51.78
2019-04-11T03:04:29.007Z,51.83
2019-04-11T03:07:00.103Z,51.81
2019-04-11T03:09:31.277Z,51.75
2019-04-11T03:12:02.832Z,51.87
2019-04-11T03:14:46.279Z,52.04
2019-04-11T03:17:14.029Z,51.94
2019-04-11T03:19:47.625Z,51.93
2019-04-11T03:22:08.076Z,52.02
2019-04-11T03:24:40.471Z,52.25
2019-04-11T03:27:11.975Z,52.21
2019-04-11T03:29:43.080Z,52.24
2019-04-11T03:35:35.016Z,52.43
2019-04-11T03:37:44.574Z,52.50
2019-04-11T03:40:07.877Z,52.70
2019-04-11T03:42:35.201Z,52.74
2019-04-11T03:45:15.298Z,52.64
2019-04-11T03:47:35.983Z,52.71
2019-04-11T03:50:01.738Z,52.84
2019-04-11T03:52:26.462Z,52.92
2019-04-11T03:54:56.845Z,52.71
2019-04-11T03:57:27.792Z,52.70
2019-04-11T03:59:58.760Z,52.73
2019-04-11T04:02:30.775Z,52.82
2019-04-11T04:05:01.325Z,52.96
2019-04-11T04:07:31.964Z,53.00
2019-04-11T04:10:03.048Z,52.98
2019-04-11T04:12:35.775Z,52.82
2019-04-11T04:15:35.900Z,52.93
2019-04-11T04:17:55.782Z,53.01
2019-04-11T04:20:43.961Z,52.94
2019-04-11T04:23:29.488Z,52.90
2019-04-11T04:26:01.109Z,52.88
2019-04-11T04:28:31.815Z,53.10
2019-04-11T04:31:02.304Z,53.08
2019-04-11T04:33:35.106Z,52.99
2019-04-11T04:36:06.635Z,53.08
2019-04-11T04:38:37.647Z,53.05
2019-04-11T04:41:22.387Z,53.08
2019-04-11T04:43:44.293Z,53.12
2019-04-11T04:46:29.777Z,53.00
2019-04-11T04:48:48.848Z,52.83
2019-04-11T04:51:18.334Z,52.73
2019-04-11T04:53:50.211Z,52.54
2019-04-11T04:56:24.436Z,52.57
2019-04-11T04:58:51.406Z,52.54
2019-04-11T05:01:23.534Z,52.35
2019-04-11T05:03:54.041Z,52.26
2019-04-11T05:06:24.239Z,52.27
2019-04-11T05:08:53.895Z,51.86
2019-04-11T05:11:23.516Z,51.83
2019-04-11T05:13:54.517Z,51.64
2019-04-11T05:16:24.587Z,51.50
2019-04-11T05:18:54.770Z,51.09
2019-04-11T05:21:25.420Z,51.00
2019-04-11T05:23:56.398Z,50.89
2019-04-11T05:26:28.250Z,50.69
2019-04-11T05:28:57.836Z,50.39
2019-04-11T05:31:27.437Z,50.24
2019-04-11T05:33:57.055Z,50.15
2019-04-11T05:36:26.710Z,49.77
2019-04-11T05:38:56.281Z,49.62
2019-04-11T05:41:26.842Z,49.43
2019-04-11T05:44:00.780Z,49.19
2019-04-11T05:46:35.483Z,48.83
2019-04-11T05:49:02.263Z,48.72
2019-04-11T05:51:36.870Z,48.49
2019-04-11T05:54:07.476Z,48.20
2019-04-11T05:56:35.983Z,47.94
2019-04-11T05:59:07.457Z,47.65
2019-04-11T06:01:38.727Z,47.42
2019-04-11T06:04:14.217Z,47.37
2019-04-11T06:07:01.636Z,47.11
2019-04-11T06:09:35.959Z,46.95
2019-04-11T06:12:13.728Z,46.75
2019-04-11T06:14:47.855Z,46.63
2019-04-11T06:17:18.836Z,46.46
2019-04-11T06:19:51.937Z,45.85
2019-04-11T06:22:21.767Z,44.91
2019-04-11T06:24:52.229Z,44.90
2019-04-11T06:27:22.167Z,45.08
2019-04-11T06:29:59.325Z,45.13
2019-04-11T06:32:48.873Z,45.06
2019-04-11T06:35:35.903Z,44.84
2019-04-11T06:38:23.184Z,44.84
2019-04-11T06:40:52.575Z,44.89
2019-04-11T06:43:29.420Z,44.50
2019-04-11T06:46:07.101Z,44.28
2019-04-11T06:48:41.952Z,43.83
2019-04-11T06:51:16.105Z,42.82
2019-04-11T06:53:48.430Z,42.08
2019-04-11T06:56:20.875Z,42.34
2019-04-11T06:58:53.584Z,42.48
2019-04-11T07:01:28.179Z,42.52
2019-04-11T07:04:05.319Z,42.16
2019-04-11T07:06:37.856Z,42.05
2019-04-11T07:09:14.612Z,41.87
2019-04-11T07:11:45.905Z,41.59
2019-04-11T07:14:18.293Z,41.40
2019-04-11T07:17:07.980Z,40.97
2019-04-11T07:19:55.739Z,40.90
2019-04-11T07:22:43.418Z,40.50
2019-04-11T07:25:22.289Z,40.21
2019-04-11T07:28:12.219Z,39.77
2019-04-11T07:31:00.634Z,39.46
2019-04-11T07:33:31.186Z,39.42
2019-04-11T07:36:18.678Z,38.93
2019-04-11T07:39:07.658Z,38.50
2019-04-11T07:41:39.050Z,37.39
2019-04-11T07:44:28.817Z,36.46
2019-04-11T07:47:17.320Z,35.00
2019-04-11T07:49:54.948Z,33.14
2019-04-11T07:52:22.879Z,31.55
2019-04-11T07:54:55.683Z,30.49
2019-04-11T07:57:33.011Z,29.44
2019-04-11T08:00:33.225Z,28.29
2019-04-11T08:02:53.317Z,26.87
2019-04-11T08:05:36.676Z,26.60
2019-04-11T08:08:15.455Z,26.28
2019-04-11T08:10:50.560Z,25.77
2019-04-11T08:13:26.159Z,25.25
2019-04-11T08:15:55.821Z,25.09
2019-04-11T08:18:28.444Z,24.69
2019-04-11T08:21:16.137Z,22.66
2019-04-11T08:23:47.762Z,21.64
2019-04-11T08:26:30.441Z,21.07
2019-04-11T08:29:07.507Z,20.29
2019-04-11T08:31:49.127Z,19.61
2019-04-11T08:34:21.804Z,20.01
2019-04-11T08:36:56.866Z,20.79
2019-04-11T08:39:26.980Z,19.70
2019-04-11T08:42:07.349Z,19.00
2019-04-11T08:44:37.345Z,20.98
2019-04-11T08:47:07.860Z,20.37
2019-04-11T08:49:39.747Z,19.65
2019-04-11T08:52:11.779Z,20.47
2019-04-11T08:54:48.721Z,20.64
2019-04-11T08:57:20.088Z,21.45
2019-04-11T08:59:54.071Z,21.80
2019-04-11T09:02:24.764Z,22.78
2019-04-11T09:05:07.036Z,22.87
2019-04-11T09:07:33.783Z,24.17
2019-04-11T09:10:09.527Z,21.62
2019-04-11T09:12:40.859Z,22.38
2019-04-11T09:15:12.693Z,22.43
2019-04-11T09:18:01.050Z,23.59
2019-04-11T09:20:25.407Z,25.12
2019-04-11T09:22:57.461Z,26.28
2019-04-11T09:25:43.633Z,27.64
2019-04-11T09:28:16.105Z,28.77
2019-04-11T09:30:47.273Z,29.18
2019-04-11T09:33:38.040Z,29.18
2019-04-11T09:36:26.083Z,29.37
2019-04-11T09:39:13.113Z,29.04
2019-04-11T09:42:00.843Z,28.83
2019-04-11T09:44:44.819Z,28.88
2019-04-11T09:47:32.602Z,29.55
2019-04-11T09:50:16.082Z,29.94
2019-04-11T09:52:56.348Z,29.92
2019-04-11T09:55:39.635Z,29.68
2019-04-11T09:58:27.534Z,29.36
2019-04-11T10:01:03.717Z,29.14
2019-04-11T10:03:35.094Z,29.51
2019-04-11T10:06:09.388Z,30.15
2019-04-11T10:08:41.663Z,30.50
2019-04-11T10:11:21.992Z,30.63
2019-04-11T10:13:51.434Z,30.66
2019-04-11T10:16:24.139Z,30.14
2019-04-11T10:19:07.676Z,29.82
2019-04-11T10:21:47.910Z,29.54
2019-04-11T10:24:32.542Z,30.10
2019-04-11T10:27:20.520Z,30.05
2019-04-11T10:30:08.626Z,29.83
2019-04-11T10:32:55.269Z,29.60
2019-04-11T10:35:36.514Z,29.01
2019-04-11T10:38:08.505Z,28.29
2019-04-11T10:40:56.617Z,27.53
2019-04-11T10:43:26.676Z,27.83
2019-04-11T10:46:03.929Z,27.68
2019-04-11T10:48:51.438Z,27.36
2019-04-11T10:51:24.659Z,27.52
2019-04-11T10:53:55.913Z,27.71
2019-04-11T10:56:30.577Z,27.43
2019-04-11T10:59:01.544Z,27.54
2019-04-11T11:01:35.938Z,27.99
2019-04-11T11:04:13.780Z,27.89
2019-04-11T11:06:45.106Z,27.52
2019-04-11T11:09:18.208Z,26.99
2019-04-11T11:12:05.734Z,26.43
2019-04-11T11:14:49.088Z,26.24
2019-04-11T11:17:46.118Z,25.49
2019-04-11T11:20:22.365Z,25.35
2019-04-11T11:22:57.049Z,25.29
2019-04-11T11:25:28.322Z,24.82
2019-04-11T11:27:58.032Z,23.75
2019-04-11T11:30:37.331Z,19.75
2019-04-11T11:33:09.997Z,19.60
2019-04-11T11:35:42.846Z,20.73
2019-04-11T11:38:14.406Z,21.98
2019-04-11T11:40:45.727Z,23.77
2019-04-11T11:43:23.146Z,25.01
2019-04-11T11:45:55.529Z,25.97
2019-04-11T11:48:26.377Z,26.46
2019-04-11T11:50:57.088Z,26.60
2019-04-11T11:53:28.324Z,26.90
2019-04-11T11:55:59.880Z,26.29
2019-04-11T11:58:31.159Z,24.40
2019-04-11T12:01:06.712Z,23.70
2019-04-11T12:03:40.826Z,24.25
2019-04-11T12:06:10.858Z,25.31
2019-04-11T12:08:54.630Z,26.06
2019-04-11T12:11:26.310Z,26.72
2019-04-11T12:14:14.000Z,27.24
2019-04-11T12:17:03.861Z,27.21
2019-04-11T12:19:45.801Z,27.43
2019-04-11T12:22:08.448Z,27.01
2019-04-11T12:24:43.053Z,26.97
2019-04-11T12:27:16.432Z,26.95
2019-04-11T12:29:50.446Z,27.16
2019-04-11T12:32:37.021Z,27.24
2019-04-11T12:35:15.679Z,28.35
2019-04-11T12:37:51.840Z,29.03
2019-04-11T12:40:28.203Z,28.80
2019-04-11T12:42:59.458Z,28.55
2019-04-11T12:45:37.775Z,28.08
2019-04-11T12:48:07.410Z,27.60
2019-04-11T12:50:41.800Z,26.82
2019-04-11T12:53:11.442Z,26.38
2019-04-11T12:55:54.458Z,25.60
2019-04-11T12:58:31.264Z,25.37
2019-04-11T13:01:02.498Z,24.74
2019-04-11T13:03:49.756Z,24.83
2019-04-11T13:06:21.870Z,25.16
2019-04-11T13:09:07.955Z,25.37
2019-04-11T13:11:44.795Z,26.52
2019-04-11T13:14:18.874Z,27.45
2019-04-11T13:16:59.001Z,27.90
2019-04-11T13:19:46.457Z,27.89
2019-04-11T13:22:20.249Z,28.08
2019-04-11T13:24:54.360Z,27.84
2019-04-11T13:27:25.765Z,28.19
2019-04-11T13:30:04.261Z,28.02
2019-04-11T13:32:44.839Z,27.54
2019-04-11T13:35:32.042Z,27.63
2019-04-11T13:38:07.517Z,27.04
2019-04-11T13:40:44.363Z,26.67
2019-04-11T13:43:31.306Z,26.16
2019-04-11T13:46:02.549Z,26.18
2019-04-11T13:48:47.082Z,25.84
2019-04-11T13:51:31.372Z,25.90
2019-04-11T13:54:19.214Z,25.37
2019-04-11T13:57:06.491Z,24.99
2019-04-11T13:59:35.874Z,25.30
2019-04-11T14:02:14.900Z,25.70
2019-04-11T14:05:01.104Z,26.14
2019-04-11T14:07:30.714Z,26.46
2019-04-11T14:10:02.475Z,26.69
2019-04-11T14:12:33.421Z,27.43
2019-04-11T14:15:17.144Z,27.29
2019-04-11T14:17:56.845Z,27.12
2019-04-11T14:20:43.262Z,26.56
2019-04-11T14:23:15.270Z,26.05
2019-04-11T14:26:03.439Z,26.50
2019-04-11T14:28:34.772Z,27.66
2019-04-11T14:31:23.870Z,28.08
2019-04-11T14:33:56.032Z,28.77
2019-04-11T14:36:44.110Z,29.16
2019-04-11T14:39:15.364Z,29.11
2019-04-11T14:41:59.774Z,29.63
2019-04-11T14:44:31.198Z,29.50
2019-04-11T14:47:06.663Z,29.75
2019-04-11T14:49:34.264Z,29.55
2019-04-11T14:52:20.713Z,29.70
2019-04-11T14:54:50.724Z,29.28
2019-04-11T14:57:36.640Z,29.43
2019-04-11T15:00:17.880Z,28.77
2019-04-11T15:03:05.124Z,28.57
2019-04-11T15:05:44.607Z,28.21
2019-04-11T15:08:17.678Z,28.50
2019-04-11T15:10:48.320Z,28.11
2019-04-11T15:13:20.191Z,28.34
2019-04-11T15:15:52.352Z,28.53
2019-04-11T15:18:21.961Z,28.70
2019-04-11T15:20:56.038Z,28.96
2019-04-11T15:23:27.295Z,29.43
2019-04-11T15:26:16.498Z,29.52
2019-04-11T15:28:47.749Z,29.73
2019-04-11T15:31:19.664Z,29.83
2019-04-11T15:33:56.765Z,29.99
2019-04-11T15:36:28.560Z,30.09
2019-04-11T15:39:16.029Z,30.14
2019-04-11T15:41:48.044Z,29.93
2019-04-11T15:44:34.554Z,30.04
2019-04-11T15:47:19.072Z,30.07
2019-04-11T15:49:53.555Z,29.78
2019-04-11T15:52:23.165Z,29.71
2019-04-11T15:55:07.756Z,29.97
2019-04-11T15:57:42.629Z,29.81
2019-04-11T16:00:21.086Z,29.92
2019-04-11T16:02:58.416Z,29.98
2019-04-11T16:05:41.841Z,30.30
2019-04-11T16:08:13.100Z,30.66
2019-04-11T16:10:47.218Z,30.62
2019-04-11T16:13:34.778Z,30.56
2019-04-11T16:16:11.926Z,30.20
2019-04-11T16:18:55.214Z,29.99
2019-04-11T16:21:44.603Z,29.82
2019-04-11T16:24:27.386Z,30.15
2019-04-11T16:26:57.536Z,30.18
2019-04-11T16:29:44.947Z,30.05
2019-04-11T16:32:15.647Z,30.03
2019-04-11T16:34:48.681Z,30.05
2019-04-11T16:37:19.138Z,30.16
2019-04-11T16:40:06.947Z,30.06
2019-04-11T16:42:38.655Z,30.58
2019-04-11T16:45:09.047Z,30.46
2019-04-11T16:47:46.294Z,30.78
2019-04-11T16:50:16.004Z,30.84
2019-04-11T16:52:45.697Z,30.80
2019-04-11T16:55:15.345Z,30.58
2019-04-11T16:57:45.244Z,30.57
2019-04-11T17:00:19.745Z,30.68
2019-04-11T17:02:47.128Z,30.92
2019-04-11T17:05:17.075Z,30.72
2019-04-11T17:08:04.210Z,30.69
2019-04-11T17:10:51.999Z,30.91
2019-04-11T17:13:23.792Z,30.65
2019-04-11T17:15:53.233Z,30.88
2019-04-11T17:18:23.112Z,31.02
2019-04-11T17:20:53.304Z,31.21
2019-04-11T17:23:23.239Z,31.43
2019-04-11T17:25:53.655Z,31.64
2019-04-11T17:28:23.780Z,31.84
2019-04-11T17:30:55.704Z,31.94
2019-04-11T17:33:28.597Z,32.15
2019-04-11T17:36:02.070Z,32.43
2019-04-11T17:38:29.438Z,32.98
2019-04-11T17:40:59.127Z,33.41
2019-04-11T17:43:29.022Z,33.36
2019-04-11T17:45:59.045Z,33.53
2019-04-11T17:48:28.946Z,33.66
2019-04-11T17:50:58.650Z,33.75
2019-04-11T17:53:28.262Z,34.00
2019-04-11T17:55:58.339Z,34.06
2019-04-11T17:58:28.618Z,34.12
2019-04-11T18:01:00.618Z,34.35
2019-04-11T18:03:30.727Z,34.73
2019-04-11T18:06:00.576Z,35.18
2019-04-11T18:08:30.238Z,35.26
2019-04-11T18:10:59.931Z,35.50
2019-04-11T18:13:31.442Z,35.37
2019-04-11T18:16:01.749Z,35.57
2019-04-11T18:18:34.966Z,35.66
2019-04-11T18:21:07.099Z,35.80
2019-04-11T18:23:36.028Z,35.85
2019-04-11T18:26:06.618Z,35.87
2019-04-11T18:28:36.531Z,35.81
2019-04-11T18:31:07.946Z,35.89
2019-04-11T18:33:37.860Z,36.12
2019-04-11T18:36:09.372Z,36.32
2019-04-11T18:38:39.161Z,36.22
2019-04-11T18:41:08.768Z,36.38
2019-04-11T18:43:38.654Z,36.49
2019-04-11T18:46:10.029Z,36.62
2019-04-11T18:48:39.875Z,36.82
2019-04-11T18:51:09.753Z,36.68
2019-04-11T18:53:39.363Z,36.71
2019-04-11T18:56:08.981Z,36.77
2019-04-11T18:58:38.589Z,37.00
2019-04-11T19:01:09.114Z,37.05
2019-04-11T19:03:41.389Z,37.15
2019-04-11T19:06:12.880Z,37.22
2019-04-11T19:08:43.450Z,37.39
2019-04-11T19:11:15.428Z,37.43
2019-04-11T19:13:46.717Z,37.57
2019-04-11T19:16:16.286Z,37.36
2019-04-11T19:18:47.698Z,37.30
2019-04-11T19:21:21.053Z,37.33
2019-04-11T19:23:50.222Z,37.37
2019-04-11T19:26:19.841Z,37.19
2019-04-11T19:28:54.936Z,37.06
2019-04-11T19:31:22.485Z,36.92
2019-04-11T19:33:52.095Z,37.06
2019-04-11T19:36:21.733Z,37.01
2019-04-11T19:38:51.566Z,37.13
2019-04-11T19:41:21.178Z,36.91
2019-04-11T19:43:50.792Z,37.08
2019-04-11T19:46:21.031Z,37.07
2019-04-11T19:48:54.900Z,37.17
2019-04-11T19:51:22.031Z,37.03
2019-04-11T19:53:51.640Z,37.08
2019-04-11T19:56:38.771Z,37.09
2019-04-11T19:59:08.362Z,37.14
2019-04-11T20:01:37.973Z,37.31
2019-04-11T20:04:07.645Z,37.16
2019-04-11T20:06:37.259Z,37.23
2019-04-11T20:09:08.786Z,37.17
2019-04-11T20:11:38.418Z,37.06
2019-04-11T20:14:08.043Z,37.59
2019-04-11T20:16:42.798Z,37.29
2019-04-11T20:19:09.257Z,37.02
2019-04-11T20:21:39.066Z,36.43
2019-04-11T20:24:08.670Z,36.01
2019-04-11T20:26:38.317Z,36.21
2019-04-11T20:29:07.966Z,36.34
2019-04-11T20:31:38.565Z,36.43
2019-04-11T20:34:08.311Z,36.59
2019-04-11T20:36:41.201Z,36.35
2019-04-11T20:39:09.642Z,35.70
2019-04-11T20:41:39.248Z,35.35
2019-04-11T20:44:08.843Z,35.62
2019-04-11T20:46:38.452Z,35.65
2019-04-11T20:49:08.060Z,35.71
2019-04-11T20:51:37.699Z,36.02
2019-04-11T20:54:07.976Z,36.09
2019-04-11T20:56:40.139Z,36.17
2019-04-11T20:59:10.379Z,36.28
2019-04-11T21:01:40.649Z,36.30
2019-04-11T21:04:10.235Z,36.07
2019-04-11T21:06:39.980Z,35.96
2019-04-11T21:09:12.040Z,35.73
2019-04-11T21:11:41.653Z,35.33
2019-04-11T21:14:11.274Z,35.10
2019-04-11T21:16:40.875Z,35.00
2019-04-11T21:19:10.487Z,34.94
2019-04-11T21:21:40.147Z,34.89
2019-04-11T21:24:09.810Z,35.17
2019-04-11T21:26:40.022Z,35.36
2019-04-11T21:29:09.611Z,35.40
2019-04-11T21:31:39.237Z,35.58
2019-04-11T21:34:08.865Z,35.78
2019-04-11T21:36:38.558Z,35.98
2019-04-11T21:39:10.603Z,36.11
2019-04-11T21:41:45.352Z,36.21
2019-04-11T21:44:15.036Z,36.23
2019-04-11T21:46:44.652Z,36.27
2019-04-11T21:49:14.258Z,36.43
2019-04-11T21:51:43.884Z,36.44
2019-04-11T21:54:15.017Z,36.30
2019-04-11T21:56:49.353Z,36.15
2019-04-11T21:59:20.125Z,36.13
2019-04-11T22:01:48.153Z,36.25
2019-04-11T22:04:17.924Z,35.90
2019-04-11T22:06:47.539Z,36.12
2019-04-11T22:09:17.421Z,36.17
2019-04-11T22:11:47.043Z,36.18
2019-04-11T22:14:16.914Z,36.34
2019-04-11T22:16:46.512Z,36.19
2019-04-11T22:19:16.132Z,36.36
2019-04-11T22:21:46.063Z,36.38
2019-04-11T22:24:15.834Z,36.50
2019-04-11T22:26:50.139Z,36.64
2019-04-11T22:29:16.793Z,36.62
2019-04-11T22:31:46.407Z,36.79
2019-04-11T22:34:15.779Z,36.91
2019-04-11T22:36:45.397Z,37.09
2019-04-11T22:39:14.986Z,37.31
2019-04-11T22:41:44.591Z,37.60
2019-04-11T22:44:14.183Z,37.97
2019-04-11T22:46:43.809Z,38.38
2019-04-11T22:49:13.408Z,38.64
2019-04-11T22:51:43.667Z,38.97
2019-04-11T22:54:13.801Z,39.50
2019-04-11T22:56:43.368Z,39.90
2019-04-11T22:59:14.016Z,40.13
2019-04-11T23:01:46.597Z,40.52
2019-04-11T23:04:17.075Z,40.66
2019-04-11T23:06:47.256Z,40.73
2019-04-11T23:09:19.494Z,41.15
2019-04-11T23:11:48.801Z,41.14
2019-04-11T23:14:18.429Z,41.31
2019-04-11T23:16:48.022Z,41.43
2019-04-11T23:19:17.627Z,41.95
2019-04-11T23:21:47.239Z,42.08
2019-04-11T23:24:16.848Z,42.34
2019-04-11T23:26:46.482Z,42.56
2019-04-11T23:29:16.678Z,42.70
2019-04-11T23:31:46.262Z,42.92
2019-04-11T23:34:15.889Z,42.99
2019-04-11T23:36:45.466Z,43.05
2019-04-11T23:39:15.072Z,43.32
2019-04-11T23:41:44.699Z,43.36
2019-04-11T23:44:14.291Z,43.58
2019-04-11T23:46:43.924Z,43.64
2019-04-11T23:49:13.525Z,43.89
2019-04-11T23:51:43.169Z,43.85
2019-04-11T23:54:22.713Z,44.06
2019-04-11T23:56:44.133Z,44.06
2019-04-11T23:59:13.728Z,44.18
